Time;durP1;ratioP1;P1;durP2;ratioP2;P2;SDS_P1;SDS_P2;PMS_P1;PMS_P2;Temp;Humidity;BMP_temperature;BMP_pressure;BME280_temperature;BME280_humidity;BME280_pressure;Samples;Min_cycle;Max_cycle;Signal;HPM_P1;HPM_P2
2023/04/02 00:01:02;;;;;;;3.90;2.10;;;4.30;99.90;;;;;;5004714;28;25101;-74
2023/04/02 00:03:44;;;;;;;5.30;2.42;;;4.20;99.90;;;;;;5037948;28;25108;-74
2023/04/02 00:06:43;;;;;;;4.53;2.33;;;4.20;99.90;;;;;;5038040;28;25075;-73
2023/04/02 00:09:14;;;;;;;4.10;2.03;;;4.20;99.90;;;;;;5032324;28;25065;-73
2023/04/02 00:11:45;;;;;;;5.07;2.30;;;4.10;99.90;;;;;;5020062;28;25134;-73
2023/04/02 00:14:24;;;;;;;6.82;2.60;;;4.10;99.90;;;;;;5037791;28;25058;-74
2023/04/02 00:16:54;;;;;;;5.57;2.50;;;4.10;99.90;;;;;;5037642;28;25118;-73
2023/04/02 00:19:41;;;;;;;6.95;2.80;;;4.00;99.90;;;;;;5019972;28;25137;-73
2023/04/02 00:22:25;;;;;;;4.80;2.35;;;4.00;99.90;;;;;;5038003;28;25055;-73
2023/04/02 00:24:55;;;;;;;3.10;1.90;;;4.00;99.90;;;;;;5019836;28;25091;-73
2023/04/02 00:27:22;;;;;;;4.60;2.22;;;4.00;99.90;;;;;;5037999;28;25060;-73
2023/04/02 00:29:53;;;;;;;4.75;2.15;;;4.00;99.90;;;;;;5037267;28;25092;-73
2023/04/02 00:32:30;;;;;;;4.97;2.00;;;4.00;99.90;;;;;;5019740;28;25105;-73
2023/04/02 00:34:59;;;;;;;3.83;2.20;;;3.90;99.90;;;;;;5037274;28;25073;-73
2023/04/02 00:37:41;;;;;;;7.20;2.00;;;3.90;99.90;;;;;;5037230;28;25094;-73
2023/04/02 00:40:25;;;;;;;7.15;2.65;;;3.90;99.90;;;;;;5019586;28;25068;-73
2023/04/02 00:42:58;;;;;;;3.95;2.30;;;3.90;99.90;;;;;;5036937;28;25140;-73
2023/04/02 00:45:36;;;;;;;6.00;2.47;;;3.90;99.90;;;;;;5037635;28;25067;-73
2023/04/02 00:48:33;;;;;;;3.92;2.08;;;3.90;99.90;;;;;;5016972;28;25083;-73
2023/04/02 00:51:16;;;;;;;6.93;2.65;;;3.90;99.90;;;;;;5017064;28;25079;-73
2023/04/02 00:53:46;;;;;;;4.78;2.85;;;3.90;99.90;;;;;;4999575;28;25116;-73
2023/04/02 00:56:29;;;;;;;5.93;3.22;;;3.80;99.90;;;;;;5017748;28;25079;-74
2023/04/02 00:58:57;;;;;;;9.00;4.00;;;3.80;99.90;;;;;;5016924;28;25075;-73
2023/04/02 01:01:36;;;;;;;6.15;2.92;;;3.80;99.90;;;;;;4999502;28;25105;-73
2023/04/02 01:04:05;;;;;;;8.52;3.10;;;3.70;99.90;;;;;;5017079;28;25087;-73
2023/04/02 01:06:38;;;;;;;8.38;3.50;;;3.60;99.90;;;;;;5016967;28;25068;-73
2023/04/02 01:09:42;;;;;;;7.85;3.53;;;3.60;99.90;;;;;;4999192;28;25067;-73
2023/04/02 01:13:11;;;;;;;6.97;4.20;;;3.50;99.90;;;;;;5016749;28;25072;-73
2023/04/02 01:16:04;;;;;;;7.43;3.15;;;3.50;99.90;;;;;;4937920;29;25157;-73
2023/04/02 01:18:38;;;;;;;8.00;3.58;;;3.50;99.90;;;;;;5002182;28;25134;-73
2023/04/02 01:21:29;;;;;;;7.68;3.40;;;3.40;99.90;;;;;;4999315;28;25069;-73
2023/04/02 01:24:02;;;;;;;6.80;2.78;;;3.40;99.90;;;;;;5016802;28;25127;-74
2023/04/02 01:26:46;;;;;;;7.72;3.20;;;3.40;99.90;;;;;;5017095;28;25106;-73
2023/04/02 01:29:36;;;;;;;9.43;3.55;;;3.40;99.90;;;;;;4999087;28;25111;-74
2023/04/02 01:32:13;;;;;;;12.50;3.70;;;3.30;99.90;;;;;;5016930;28;25123;-73
2023/04/02 01:34:46;;;;;;;9.50;3.88;;;3.30;99.90;;;;;;5016415;28;25108;-73
2023/04/02 01:37:35;;;;;;;11.02;4.00;;;3.30;99.90;;;;;;5016954;28;25064;-73
2023/04/02 01:40:28;;;;;;;13.77;3.80;;;3.20;99.90;;;;;;5016427;28;25073;-73
2023/04/02 01:43:02;;;;;;;14.18;4.13;;;3.20;99.90;;;;;;4999033;28;25158;-73
2023/04/02 01:45:29;;;;;;;10.40;4.13;;;3.20;99.90;;;;;;5016431;28;25071;-73
2023/04/02 01:47:58;;;;;;;9.45;3.42;;;3.20;99.90;;;;;;5017412;28;25127;-73
2023/04/02 01:50:36;;;;;;;7.53;3.50;;;3.20;99.90;;;;;;5036539;28;25061;-73
2023/04/02 01:53:11;;;;;;;9.25;4.03;;;3.20;99.90;;;;;;5036387;28;25115;-74
2023/04/02 01:55:47;;;;;;;9.43;3.20;;;3.20;99.90;;;;;;5018517;28;25063;-73
2023/04/02 01:58:26;;;;;;;13.65;4.32;;;3.20;99.90;;;;;;5035993;28;25080;-73
2023/04/02 02:01:00;;;;;;;14.82;4.50;;;3.20;99.90;;;;;;5036488;28;25057;-74
2023/04/02 02:03:28;;;;;;;7.68;3.13;;;3.10;99.90;;;;;;5035989;28;25075;-74
2023/04/02 02:05:56;;;;;;;12.23;4.05;;;3.10;99.90;;;;;;5036228;28;25122;-73
2023/04/02 02:08:51;;;;;;;10.48;3.95;;;3.10;99.90;;;;;;5035829;28;25120;-74
2023/04/02 02:11:23;;;;;;;9.85;4.38;;;3.10;99.90;;;;;;5036150;28;25089;-73
2023/04/02 02:13:58;;;;;;;6.85;2.97;;;3.10;99.90;;;;;;5036149;28;25059;-73
2023/04/02 02:16:27;;;;;;;9.10;3.67;;;3.10;99.90;;;;;;5035842;28;25058;-73
2023/04/02 02:19:02;;;;;;;8.57;3.47;;;3.10;99.90;;;;;;5018539;28;25105;-73
2023/04/02 02:21:38;;;;;;;9.93;3.28;;;3.10;99.90;;;;;;5022112;28;25094;-73
2023/04/02 02:24:23;;;;;;;5.75;2.50;;;3.00;99.90;;;;;;5039588;28;25063;-73
2023/04/02 02:27:07;;;;;;;5.57;2.40;;;3.00;99.90;;;;;;5039852;28;25055;-73
2023/04/02 02:29:37;;;;;;;7.22;2.72;;;3.00;99.90;;;;;;5039576;28;25054;-73
2023/04/02 02:32:08;;;;;;;7.40;2.92;;;3.00;99.90;;;;;;5039652;28;25141;-73
2023/04/02 02:34:46;;;;;;;8.98;2.83;;;3.00;99.90;;;;;;5039455;28;25072;-73
2023/04/02 02:37:26;;;;;;;8.35;2.70;;;2.90;99.90;;;;;;5039538;28;25091;-74
2023/04/02 02:39:57;;;;;;;11.88;3.30;;;2.90;99.90;;;;;;5039752;28;25065;-73
2023/04/02 02:42:33;;;;;;;8.73;2.70;;;2.90;99.90;;;;;;5021897;28;25065;-73
2023/04/02 02:45:05;;;;;;;11.07;3.38;;;2.90;99.90;;;;;;5039264;28;25055;-73
2023/04/02 02:47:38;;;;;;;6.20;2.88;;;2.90;99.90;;;;;;5039009;28;25081;-74
2023/04/02 02:50:22;;;;;;;7.15;2.88;;;2.90;99.90;;;;;;5039305;28;25060;-74
2023/04/02 02:52:59;;;;;;;6.43;2.53;;;2.90;99.90;;;;;;5038923;28;25062;-73
2023/04/02 02:55:35;;;;;;;7.50;2.45;;;2.80;99.90;;;;;;5039045;28;25062;-74
2023/04/02 02:58:19;;;;;;;4.35;1.90;;;2.80;99.90;;;;;;5039001;28;25112;-74
2023/04/02 03:00:47;;;;;;;5.82;2.22;;;2.80;99.90;;;;;;5039133;28;25074;-73
2023/04/02 03:03:21;;;;;;;7.07;2.22;;;2.80;99.90;;;;;;5039242;28;25087;-73
2023/04/02 03:06:01;;;;;;;10.90;2.55;;;2.80;99.90;;;;;;5039127;28;25115;-73
2023/04/02 03:08:46;;;;;;;6.80;2.55;;;2.70;99.90;;;;;;5039300;28;25086;-73
2023/04/02 03:11:28;;;;;;;10.63;2.78;;;2.70;99.90;;;;;;5021356;28;25119;-73
2023/04/02 03:14:19;;;;;;;8.85;2.40;;;2.70;99.90;;;;;;5039255;28;25069;-73
2023/04/02 03:16:52;;;;;;;4.95;1.75;;;2.70;99.90;;;;;;5020980;28;25090;-73
2023/04/02 03:19:43;;;;;;;9.20;2.65;;;2.70;99.90;;;;;;5039017;28;25093;-74
2023/04/02 03:22:16;;;;;;;4.95;2.13;;;2.70;99.90;;;;;;5039224;28;25061;-73
2023/04/02 03:25:06;;;;;;;6.70;2.08;;;2.60;99.90;;;;;;5021025;28;25080;-73
2023/04/02 03:27:45;;;;;;;3.72;1.73;;;2.60;99.90;;;;;;5039104;28;25132;-73
2023/04/02 03:30:25;;;;;;;9.75;2.38;;;2.60;99.90;;;;;;5038183;28;25083;-73
2023/04/02 03:32:59;;;;;;;5.95;2.30;;;2.60;99.90;;;;;;5038918;28;25106;-73
2023/04/02 03:35:39;;;;;;;7.10;1.98;;;2.60;99.90;;;;;;5021025;28;25129;-73
2023/04/02 03:38:40;;;;;;;6.75;2.08;;;2.60;99.90;;;;;;5020564;28;25101;-73
2023/04/02 03:41:17;;;;;;;9.68;2.53;;;2.60;99.90;;;;;;5027541;28;25081;-74
2023/04/02 03:43:54;;;;;;;4.93;2.05;;;2.60;99.90;;;;;;5020595;28;25112;-73
2023/04/02 03:46:48;;;;;;;9.07;2.65;;;2.50;99.90;;;;;;5033021;28;25105;-74
2023/04/02 03:49:53;;;;;;;5.38;1.60;;;2.60;99.90;;;;;;5018249;28;25059;-73
2023/04/02 03:52:26;;;;;;;8.95;2.13;;;2.60;99.90;;;;;;5016269;28;25066;-73
2023/04/02 03:55:00;;;;;;;7.60;1.90;;;2.50;99.90;;;;;;5018170;28;25080;-73
2023/04/02 03:57:57;;;;;;;5.55;1.67;;;2.50;99.90;;;;;;5018774;28;25128;-73
2023/04/02 04:00:52;;;;;;;5.65;1.60;;;2.50;99.90;;;;;;5018078;28;25131;-73
2023/04/02 04:03:49;;;;;;;4.20;1.65;;;2.50;99.90;;;;;;5017992;28;25115;-73
2023/04/02 04:06:29;;;;;;;4.60;2.30;;;2.50;99.90;;;;;;5014254;28;25119;-74
2023/04/02 04:09:01;;;;;;;5.25;1.65;;;2.50;99.90;;;;;;5017814;28;25131;-74
2023/04/02 04:11:45;;;;;;;4.97;2.03;;;2.40;99.90;;;;;;5000452;28;25113;-73
2023/04/02 04:14:34;;;;;;;9.50;1.88;;;2.40;99.90;;;;;;5000264;28;25090;-74
2023/04/02 04:17:12;;;;;;;3.85;1.83;;;2.40;99.90;;;;;;5018429;28;25064;-73
2023/04/02 04:19:53;;;;;;;7.93;1.80;;;2.40;99.90;;;;;;5018224;28;25066;-74
2023/04/02 04:22:34;;;;;;;6.30;1.20;;;2.40;99.90;;;;;;5017895;28;25060;-73
2023/04/02 04:25:17;;;;;;;5.88;1.60;;;2.30;99.90;;;;;;5018187;28;25079;-73
2023/04/02 04:28:23;;;;;;;5.18;1.50;;;2.40;99.90;;;;;;5017524;28;25058;-74
2023/04/02 04:31:02;;;;;;;3.72;1.77;;;2.40;99.90;;;;;;5017829;28;25109;-73
2023/04/02 04:33:43;;;;;;;4.63;1.33;;;2.40;99.90;;;;;;5017511;28;25105;-73
2023/04/02 04:36:27;;;;;;;4.40;1.50;;;2.30;99.90;;;;;;5017875;28;25074;-73
2023/04/02 04:38:59;;;;;;;4.20;1.45;;;2.40;99.90;;;;;;5017575;28;25049;-74
2023/04/02 04:41:32;;;;;;;5.20;1.48;;;2.40;99.90;;;;;;5017126;28;25120;-73
2023/04/02 04:44:17;;;;;;;3.17;1.83;;;2.30;99.90;;;;;;5017129;28;25075;-74
2023/04/02 04:47:11;;;;;;;3.70;1.38;;;2.40;99.90;;;;;;5017402;28;25084;-74
2023/04/02 04:50:04;;;;;;;5.72;1.23;;;2.40;99.90;;;;;;5017134;28;25081;-73
2023/04/02 04:52:37;;;;;;;2.70;1.42;;;2.40;99.90;;;;;;5017336;28;25055;-73
2023/04/02 04:55:39;;;;;;;9.52;1.50;;;2.40;99.90;;;;;;5017229;28;25067;-73
2023/04/02 04:58:24;;;;;;;3.78;1.25;;;2.40;99.90;;;;;;5017597;28;25103;-73
2023/04/02 05:01:17;;;;;;;3.28;1.40;;;2.40;99.90;;;;;;5017080;28;25114;-74
2023/04/02 05:04:11;;;;;;;4.38;1.25;;;2.40;99.90;;;;;;5016939;28;25076;-74
2023/04/02 05:07:03;;;;;;;4.85;1.33;;;2.40;99.90;;;;;;5017260;28;25051;-74
2023/04/02 05:10:06;;;;;;;7.22;1.70;;;2.40;99.90;;;;;;5016992;28;25117;-74
2023/04/02 05:12:42;;;;;;;5.40;1.20;;;2.40;99.90;;;;;;4979979;28;25114;-74
2023/04/02 05:15:32;;;;;;;5.00;1.50;;;2.40;99.90;;;;;;5017152;28;25115;-74
2023/04/02 05:18:20;;;;;;;3.45;1.63;;;2.40;99.90;;;;;;4999308;28;25094;-74
2023/04/02 05:21:00;;;;;;;6.85;1.33;;;2.40;99.90;;;;;;4999242;28;25055;-74
2023/04/02 05:23:40;;;;;;;3.10;0.90;;;2.40;99.90;;;;;;5016833;28;25106;-74
2023/04/02 05:26:21;;;;;;;4.68;1.23;;;2.40;99.90;;;;;;5016967;28;25067;-74
2023/04/02 05:29:14;;;;;;;4.03;0.90;;;2.40;99.90;;;;;;4999077;28;25081;-74
2023/04/02 05:32:03;;;;;;;4.20;1.20;;;2.40;99.90;;;;;;5016758;28;25070;-74
2023/04/02 05:34:39;;;;;;;7.13;1.17;;;2.50;99.90;;;;;;5016365;28;25057;-74
2023/04/02 05:37:13;;;;;;;6.30;1.17;;;2.50;99.90;;;;;;4999144;28;25070;-74
2023/04/02 05:39:45;;;;;;;4.95;1.10;;;2.50;99.90;;;;;;5016363;28;25071;-74
2023/04/02 05:42:24;;;;;;;4.45;1.40;;;2.50;99.90;;;;;;4999208;28;25068;-78
2023/04/02 05:45:26;;;;;;;5.93;1.00;;;2.50;99.90;;;;;;5016302;28;25066;-74
2023/04/02 05:48:00;;;;;;;5.53;1.70;;;2.60;99.90;;;;;;5033854;28;25083;-74
2023/04/02 05:50:36;;;;;;;2.05;0.77;;;2.60;99.90;;;;;;5036003;28;25076;-74
2023/04/02 05:53:09;;;;;;;7.30;1.10;;;2.60;99.90;;;;;;5036067;28;25069;-74
2023/04/02 05:55:48;;;;;;;4.28;1.35;;;2.60;99.90;;;;;;5039668;28;25157;-74
2023/04/02 05:58:47;;;;;;;1.90;0.90;;;2.60;99.90;;;;;;5040140;28;25071;-76
2023/04/02 06:01:37;;;;;;;1.40;0.73;;;2.70;99.90;;;;;;5022862;28;25084;-74
2023/04/02 06:04:25;;;;;;;4.05;1.17;;;2.70;99.90;;;;;;5040241;28;25069;-73
2023/04/02 06:07:02;;;;;;;2.38;0.80;;;2.80;99.90;;;;;;5039777;28;25125;-73
2023/04/02 06:09:43;;;;;;;3.70;1.25;;;2.80;99.90;;;;;;5039878;28;25095;-74
2023/04/02 06:12:19;;;;;;;6.97;1.23;;;2.80;99.90;;;;;;5039894;28;25070;-73
2023/04/02 06:14:46;;;;;;;3.63;1.17;;;2.80;99.90;;;;;;5040143;28;25105;-73
2023/04/02 06:17:19;;;;;;;5.55;1.67;;;2.80;99.90;;;;;;5040486;28;25071;-74
2023/04/02 06:19:47;;;;;;;3.05;1.15;;;2.90;99.90;;;;;;5022471;28;25063;-77
2023/04/02 06:22:37;;;;;;;4.35;0.90;;;2.90;99.90;;;;;;5022803;28;25092;-75
2023/04/02 06:25:34;;;;;;;3.30;1.48;;;2.80;99.90;;;;;;5039547;28;25067;-74
2023/04/02 06:28:06;;;;;;;4.03;1.33;;;2.90;99.90;;;;;;5039731;28;25093;-76
2023/04/02 06:30:40;;;;;;;4.50;1.10;;;2.90;99.90;;;;;;5039558;28;25068;-75
2023/04/02 06:33:14;;;;;;;8.98;1.58;;;2.90;99.90;;;;;;5039438;28;25105;-75
2023/04/02 06:35:45;;;;;;;5.03;1.23;;;2.90;99.90;;;;;;5039543;28;25055;-75
2023/04/02 06:38:24;;;;;;;5.38;1.20;;;3.00;99.90;;;;;;5039431;28;25046;-75
2023/04/02 06:41:09;;;;;;;4.55;1.45;;;3.00;99.90;;;;;;5039299;28;25107;-74
2023/04/02 06:43:47;;;;;;;6.55;0.90;;;3.00;99.90;;;;;;5039308;28;25073;-74
2023/04/02 06:46:26;;;;;;;3.88;1.10;;;3.00;99.90;;;;;;5035460;28;25076;-74
2023/04/02 06:49:05;;;;;;;5.03;1.80;;;3.10;99.90;;;;;;5019710;28;25136;-74
2023/04/02 06:51:36;;;;;;;3.38;1.30;;;3.10;99.90;;;;;;5019370;28;25073;-75
2023/04/02 06:54:03;;;;;;;3.45;2.35;;;3.10;99.90;;;;;;5001843;28;25151;-75
2023/04/02 06:56:48;;;;;;;2.92;0.98;;;3.10;99.90;;;;;;5019289;28;25067;-74
2023/04/02 06:59:15;;;;;;;3.55;1.00;;;3.10;99.90;;;;;;5019198;28;25054;-74
2023/04/02 07:01:52;;;;;;;5.07;1.40;;;3.10;99.90;;;;;;5019685;28;25046;-74
2023/04/02 07:04:20;;;;;;;3.70;1.38;;;3.20;99.90;;;;;;5019668;28;25061;-75
2023/04/02 07:06:48;;;;;;;2.78;1.20;;;3.20;99.90;;;;;;5018392;28;25051;-75
2023/04/02 07:09:15;;;;;;;3.53;1.02;;;3.20;99.90;;;;;;5001575;28;25105;-76
2023/04/02 07:11:43;;;;;;;1.65;0.90;;;3.20;99.90;;;;;;5019392;28;25124;-77
2023/04/02 07:14:13;;;;;;;4.38;1.35;;;3.20;99.90;;;;;;5019369;28;25062;-74
2023/04/02 07:16:41;;;;;;;2.50;0.82;;;3.20;99.90;;;;;;5019423;28;25058;-75
2023/04/02 07:19:21;;;;;;;4.72;1.30;;;3.30;99.90;;;;;;5001451;28;25066;-75
2023/04/02 07:21:49;;;;;;;3.58;1.33;;;3.30;99.90;;;;;;5019264;28;25067;-75
2023/04/02 07:24:16;;;;;;;6.30;1.30;;;3.30;99.90;;;;;;5018692;28;25111;-75
2023/04/02 07:26:46;;;;;;;6.90;1.10;;;3.40;99.90;;;;;;5019168;28;25075;-75
2023/04/02 07:29:16;;;;;;;2.75;1.10;;;3.40;99.90;;;;;;5018856;28;25106;-75
2023/04/02 07:31:44;;;;;;;2.15;1.00;;;3.40;99.90;;;;;;5018635;28;25067;-75
2023/04/02 07:34:11;;;;;;;17.75;1.58;;;3.40;99.90;;;;;;5001113;28;25072;-75
2023/04/02 07:36:39;;;;;;;8.20;1.30;;;3.40;99.90;;;;;;5018490;28;25119;-76
2023/04/02 07:39:06;;;;;;;2.08;0.90;;;3.40;99.90;;;;;;5018282;28;25067;-76
2023/04/02 07:41:54;;;;;;;2.05;1.50;;;3.50;99.90;;;;;;5019111;28;25074;-76
2023/04/02 07:44:21;;;;;;;4.25;1.30;;;3.50;99.90;;;;;;5018535;28;25065;-76
2023/04/02 07:46:49;;;;;;;3.20;0.90;;;3.60;99.90;;;;;;5009344;28;25060;-76
2023/04/02 07:49:17;;;;;;;5.70;1.35;;;3.60;99.90;;;;;;5038549;28;25068;-76
2023/04/02 07:51:45;;;;;;;6.18;1.20;;;3.60;99.90;;;;;;5036720;28;25056;-75
2023/04/02 07:54:12;;;;;;;3.78;1.00;;;3.60;99.90;;;;;;5037871;28;25064;-75
2023/04/02 07:56:40;;;;;;;3.92;1.98;;;3.70;99.90;;;;;;5020362;28;25067;-76
2023/04/02 07:59:07;;;;;;;3.25;1.05;;;3.70;99.90;;;;;;5037889;28;25048;-75
2023/04/02 08:01:35;;;;;;;6.55;1.25;;;3.70;99.90;;;;;;5038018;28;25105;-75
2023/04/02 08:04:04;;;;;;;3.28;1.20;;;3.70;99.90;;;;;;5038120;28;25074;-75
2023/04/02 08:06:31;;;;;;;2.30;1.25;;;3.70;99.90;;;;;;5020119;28;25100;-75
2023/04/02 08:08:59;;;;;;;2.63;1.02;;;3.80;99.90;;;;;;5037808;28;25154;-75
2023/04/02 08:11:27;;;;;;;3.28;1.70;;;3.80;99.90;;;;;;5037489;28;25077;-76
2023/04/02 08:13:54;;;;;;;4.30;0.88;;;3.80;99.90;;;;;;5020002;28;25091;-75
2023/04/02 08:16:22;;;;;;;3.10;0.98;;;3.80;99.90;;;;;;5037122;28;25050;-75
2023/04/02 08:18:50;;;;;;;2.20;0.93;;;3.80;99.90;;;;;;5037115;28;25070;-76
2023/04/02 08:21:17;;;;;;;2.30;0.90;;;3.90;99.90;;;;;;5037418;28;25084;-74
2023/04/02 08:23:44;;;;;;;9.30;1.67;;;3.90;99.90;;;;;;5037424;28;25053;-75
2023/04/02 08:26:17;;;;;;;7.07;2.30;;;3.90;99.90;;;;;;5038289;28;25060;-74
2023/04/02 08:28:45;;;;;;;5.47;2.00;;;3.90;99.90;;;;;;5037345;28;25110;-75
2023/04/02 08:31:12;;;;;;;4.68;2.05;;;4.00;99.90;;;;;;5037604;28;25160;-75
2023/04/02 08:33:40;;;;;;;4.22;1.70;;;4.00;99.90;;;;;;5037219;28;25077;-75
2023/04/02 08:36:14;;;;;;;9.55;1.95;;;4.10;99.90;;;;;;5019841;28;25055;-75
2023/04/02 08:38:41;;;;;;;5.07;1.95;;;4.20;99.90;;;;;;5037316;28;25114;-75
2023/04/02 08:41:29;;;;;;;2.42;0.93;;;4.30;99.90;;;;;;5019664;28;25069;-74
2023/04/02 08:44:25;;;;;;;3.20;1.20;;;4.40;99.90;;;;;;5037053;28;25083;-74
2023/04/02 08:47:04;;;;;;;2.05;0.85;;;4.50;99.90;;;;;;5019379;28;25089;-75
2023/04/02 08:49:55;;;;;;;4.20;1.20;;;4.50;99.90;;;;;;5037226;28;25085;-74
2023/04/02 08:52:29;;;;;;;2.78;1.20;;;4.60;99.90;;;;;;5037068;28;25113;-74
2023/04/02 08:54:57;;;;;;;3.13;1.17;;;4.70;99.90;;;;;;5037369;28;25066;-74
2023/04/02 08:57:37;;;;;;;3.65;1.00;;;4.70;99.90;;;;;;5037387;28;25096;-74
2023/04/02 09:00:27;;;;;;;1.75;0.60;;;4.80;99.90;;;;;;5036791;28;25066;-74
2023/04/02 09:03:28;;;;;;;3.38;1.63;;;4.90;99.90;;;;;;5036772;28;25105;-74
2023/04/02 09:05:58;;;;;;;5.75;1.60;;;4.90;99.90;;;;;;5037278;28;25080;-74
2023/04/02 09:08:28;;;;;;;4.80;1.98;;;5.00;99.90;;;;;;5036632;28;25074;-75
2023/04/02 09:11:28;;;;;;;10.57;5.60;;;5.10;99.90;;;;;;5019039;28;25099;-75
2023/04/02 09:13:59;;;;;;;7.10;3.70;;;5.20;99.90;;;;;;5036450;28;25063;-75
2023/04/02 09:17:00;;;;;;;12.95;5.57;;;5.30;99.90;;;;;;5036952;28;25112;-75
2023/04/02 09:19:41;;;;;;;9.27;4.05;;;5.40;99.90;;;;;;5022415;28;25138;-75
2023/04/02 09:22:18;;;;;;;39.85;18.98;;;5.50;99.90;;;;;;5036354;28;25065;-75
2023/04/02 09:24:52;;;;;;;21.30;10.05;;;5.60;99.90;;;;;;5036024;28;25060;-75
2023/04/02 09:27:23;;;;;;;25.73;11.88;;;5.60;99.90;;;;;;5036318;28;25076;-75
2023/04/02 09:30:03;;;;;;;16.38;7.82;;;5.70;99.90;;;;;;5018610;28;25082;-75
2023/04/02 09:32:46;;;;;;;11.10;4.20;;;5.70;99.90;;;;;;5018795;28;25099;-77
2023/04/02 09:35:20;;;;;;;1.63;0.75;;;5.70;99.90;;;;;;5036252;28;25069;-75
2023/04/02 09:38:08;;;;;;;4.30;1.95;;;5.70;99.90;;;;;;5036168;28;25058;-75
2023/04/02 09:40:54;;;;;;;2.50;1.20;;;5.70;99.90;;;;;;5036333;28;25129;-75
2023/04/02 09:43:23;;;;;;;4.00;1.15;;;5.70;99.90;;;;;;5036473;28;25072;-75
2023/04/02 09:46:17;;;;;;;5.93;1.20;;;5.70;99.90;;;;;;5035623;28;25117;-75
2023/04/02 09:48:53;;;;;;;5.15;1.00;;;5.60;99.90;;;;;;5016222;28;25069;-75
2023/04/02 09:51:24;;;;;;;7.47;1.50;;;5.60;99.90;;;;;;5016571;28;25109;-75
2023/04/02 09:54:03;;;;;;;3.45;1.10;;;5.60;99.90;;;;;;5016865;28;25064;-74
2023/04/02 09:56:39;;;;;;;3.70;0.80;;;5.60;99.90;;;;;;5016537;28;25102;-74
2023/04/02 09:59:14;;;;;;;6.20;1.10;;;5.60;99.90;;;;;;4998876;28;25076;-74
2023/04/02 10:01:46;;;;;;;1.85;1.00;;;5.70;99.90;;;;;;5016964;28;25155;-74
2023/04/02 10:04:43;;;;;;;2.60;0.88;;;5.70;99.90;;;;;;5016228;28;25118;-75
2023/04/02 10:07:43;;;;;;;;;;;5.70;99.90;;;;;;5016860;28;25065;-75
2023/04/02 10:10:31;;;;;;;2.05;0.80;;;5.80;99.90;;;;;;4974164;28;25072;-76
2023/04/02 10:13:23;;;;;;;2.92;0.77;;;5.80;99.90;;;;;;4998847;28;25099;-74
2023/04/02 10:16:20;;;;;;;3.50;0.90;;;5.90;99.90;;;;;;4998791;28;25108;-74
2023/04/02 10:18:53;;;;;;;;;;;6.00;99.90;;;;;;5016488;28;25051;-75
2023/04/02 10:21:37;;;;;;;2.17;0.90;;;6.00;99.90;;;;;;5016564;28;24066;-75
2023/04/02 10:24:16;;;;;;;5.07;1.85;;;6.00;99.90;;;;;;5016461;28;25095;-75
2023/04/02 10:26:58;;;;;;;3.90;1.23;;;6.00;99.90;;;;;;5015957;28;25099;-75
2023/04/02 10:29:44;;;;;;;4.78;1.92;;;5.90;99.90;;;;;;5016084;28;25123;-75
2023/04/02 10:32:22;;;;;;;6.22;2.33;;;6.00;99.90;;;;;;4999185;28;25154;-76
2023/04/02 10:35:02;;;;;;;5.88;2.70;;;6.00;99.90;;;;;;5016313;28;25165;-74
2023/04/02 10:37:39;;;;;;;4.93;2.35;;;6.10;99.90;;;;;;5016192;28;25083;-74
2023/04/02 10:40:09;;;;;;;4.80;0.95;;;6.10;99.90;;;;;;5016999;28;25055;-75
2023/04/02 10:42:59;;;;;;;2.85;1.00;;;6.20;99.90;;;;;;5002505;28;25053;-74
2023/04/02 10:45:49;;;;;;;6.22;0.82;;;6.30;99.90;;;;;;5002179;28;25057;-74
2023/04/02 10:48:33;;;;;;;5.85;2.20;;;6.40;99.90;;;;;;5021619;28;25112;-74
2023/04/02 10:51:23;;;;;;;22.40;11.88;;;6.60;99.90;;;;;;5040286;28;25102;-74
2023/04/02 10:54:05;;;;;;;20.92;11.60;;;6.70;99.90;;;;;;5040028;28;25055;-74
2023/04/02 10:56:33;;;;;;;25.02;13.38;;;6.80;99.90;;;;;;5022255;28;25116;-75
2023/04/02 10:59:19;;;;;;;7.38;3.83;;;7.00;99.90;;;;;;5039107;28;25151;-74
2023/04/02 11:01:49;;;;;;;9.40;6.03;;;7.00;99.90;;;;;;5039053;28;25053;-74
2023/04/02 11:04:27;;;;;;;47.90;26.40;;;7.10;99.90;;;;;;5038883;28;25065;-75
2023/04/02 11:07:06;;;;;;;4.70;1.75;;;7.20;99.90;;;;;;5038922;28;25057;-74
2023/04/02 11:09:41;;;;;;;4.05;1.40;;;7.30;99.90;;;;;;5038774;28;25080;-73
2023/04/02 11:12:21;;;;;;;5.22;1.83;;;7.30;99.90;;;;;;5038856;28;25054;-73
2023/04/02 11:14:51;;;;;;;19.65;7.30;;;7.40;99.90;;;;;;5038716;28;25067;-74
2023/04/02 11:17:19;;;;;;;7.53;1.40;;;7.50;99.90;;;;;;5038834;28;25053;-76
2023/04/02 11:19:47;;;;;;;2.90;1.10;;;7.50;99.90;;;;;;5038585;28;25052;-78
2023/04/02 11:22:25;;;;;;;4.00;2.33;;;7.60;99.90;;;;;;5038895;28;25096;-79
2023/04/02 11:24:56;;;;;;;6.70;2.15;;;7.70;99.90;;;;;;5016092;28;25109;-76
2023/04/02 11:27:34;;;;;;;4.32;1.40;;;7.70;99.90;;;;;;5038023;28;25056;-75
2023/04/02 11:30:26;;;;;;;4.32;1.73;;;7.60;99.90;;;;;;5038750;28;25105;-75
2023/04/02 11:33:15;;;;;;;7.40;2.78;;;7.60;99.90;;;;;;5038627;28;25072;-75
2023/04/02 11:35:42;;;;;;;7.18;2.25;;;7.60;99.90;;;;;;5038407;28;25118;-74
2023/04/02 11:38:33;;;;;;;8.07;3.25;;;7.50;99.90;;;;;;5021068;28;25063;-75
2023/04/02 11:41:00;;;;;;;3.78;1.90;;;7.40;99.90;;;;;;5024488;28;25091;-75
2023/04/02 11:43:34;;;;;;;4.95;1.77;;;7.40;99.90;;;;;;5038743;28;25057;-75
2023/04/02 11:46:18;;;;;;;3.47;1.60;;;7.40;99.90;;;;;;5038254;28;25062;-75
2023/04/02 11:48:46;;;;;;;5.40;2.97;;;7.30;99.90;;;;;;5038623;28;25099;-75
2023/04/02 11:51:36;;;;;;;2.95;1.10;;;7.30;99.90;;;;;;5037991;28;25121;-75
2023/04/02 11:54:04;;;;;;;7.28;1.85;;;7.30;99.90;;;;;;5020140;28;25129;-75
2023/04/02 11:56:48;;;;;;;4.68;1.33;;;7.40;99.90;;;;;;5020280;28;25051;-75
2023/04/02 11:59:23;;;;;;;3.13;1.45;;;7.50;99.90;;;;;;5038517;28;25068;-75
2023/04/02 12:02:20;;;;;;;7.07;2.65;;;7.50;99.90;;;;;;5038225;28;25064;-74
2023/04/02 12:05:08;;;;;;;3.53;1.55;;;7.60;99.90;;;;;;5037871;28;25094;-75
2023/04/02 12:07:54;;;;;;;4.45;1.80;;;7.60;99.90;;;;;;5037507;28;25059;-75
2023/04/02 12:10:33;;;;;;;;;;;7.70;99.90;;;;;;5020538;28;25084;-75
2023/04/02 12:13:00;;;;;;;5.10;1.35;;;7.80;99.90;;;;;;5037728;28;24132;-75
2023/04/02 12:15:38;;;;;;;4.30;1.08;;;7.90;99.90;;;;;;5038044;28;25107;-75
2023/04/02 12:18:23;;;;;;;6.05;2.22;;;8.00;99.90;;;;;;5020002;28;25064;-75
2023/04/02 12:20:54;;;;;;;5.07;2.05;;;8.00;99.90;;;;;;5037550;28;25076;-75
2023/04/02 12:23:35;;;;;;;5.95;1.60;;;8.20;99.90;;;;;;5037493;28;25058;-75
2023/04/02 12:26:07;;;;;;;3.00;1.17;;;8.30;99.90;;;;;;5037503;28;25055;-75
2023/04/02 12:28:36;;;;;;;2.25;0.68;;;8.40;99.90;;;;;;5037460;28;25084;-75
2023/04/02 12:31:18;;;;;;;5.13;1.33;;;8.40;99.90;;;;;;5037317;28;25114;-74
2023/04/02 12:33:45;;;;;;;2.63;0.90;;;8.40;99.90;;;;;;5037852;28;25106;-75
2023/04/02 12:36:13;;;;;;;2.20;0.90;;;8.20;99.90;;;;;;5019881;28;25154;-75
2023/04/02 12:38:47;;;;;;;1.52;0.80;;;8.10;99.90;;;;;;5037428;28;25052;-75
2023/04/02 12:41:32;;;;;;;2.42;0.65;;;8.00;99.90;;;;;;5019649;28;25071;-75
2023/04/02 12:44:01;;;;;;;3.90;1.05;;;7.90;99.90;;;;;;5020070;28;25050;-75
2023/04/02 12:46:30;;;;;;;4.57;1.20;;;7.90;99.90;;;;;;5019148;28;25100;-75
2023/04/02 12:49:07;;;;;;;3.42;1.38;;;7.80;99.90;;;;;;5037692;28;25086;-75
2023/04/02 12:51:38;;;;;;;4.80;0.90;;;8.00;99.90;;;;;;5037144;28;25064;-74
2023/04/02 12:54:05;;;;;;;4.30;1.58;;;8.00;99.90;;;;;;5036803;28;25058;-74
2023/04/02 12:56:33;;;;;;;3.08;1.17;;;8.00;99.90;;;;;;5019328;28;25062;-75
2023/04/02 12:59:01;;;;;;;3.38;1.23;;;8.00;99.90;;;;;;5037076;28;25100;-74
2023/04/02 13:01:32;;;;;;;4.47;1.45;;;8.10;99.90;;;;;;5036819;28;25060;-75
2023/04/02 13:04:10;;;;;;;5.85;1.33;;;8.10;99.90;;;;;;5036608;28;25060;-75
2023/04/02 13:06:41;;;;;;;4.28;1.35;;;8.10;99.90;;;;;;5036546;28;25127;-74
2023/04/02 13:09:30;;;;;;;4.05;1.30;;;8.00;99.90;;;;;;5036473;28;25052;-74
2023/04/02 13:11:58;;;;;;;3.97;1.40;;;7.90;99.90;;;;;;5036461;28;25060;-74
2023/04/02 13:14:27;;;;;;;3.75;1.10;;;8.00;99.90;;;;;;5036562;28;25102;-74
2023/04/02 13:16:55;;;;;;;2.97;1.00;;;8.20;99.90;;;;;;5036476;28;25050;-74
2023/04/02 13:19:31;;;;;;;6.05;1.20;;;8.30;99.90;;;;;;5036761;28;25054;-74
2023/04/02 13:22:01;;;;;;;4.57;1.38;;;8.40;99.90;;;;;;5036739;28;25117;-74
2023/04/02 13:24:30;;;;;;;2.13;0.70;;;8.50;99.90;;;;;;5036393;28;25108;-74
2023/04/02 13:27:02;;;;;;;3.88;1.02;;;8.30;99.90;;;;;;5018707;28;25129;-74
2023/04/02 13:29:32;;;;;;;4.43;1.88;;;8.00;99.90;;;;;;5036311;28;25100;-74
2023/04/02 13:32:03;;;;;;;4.60;1.27;;;8.00;99.90;;;;;;5036793;28;25130;-74
2023/04/02 13:34:30;;;;;;;3.65;1.13;;;8.40;99.90;;;;;;5018725;28;25096;-74
2023/04/02 13:36:57;;;;;;;3.50;1.73;;;9.10;99.90;;;;;;5036512;28;25066;-75
2023/04/02 13:39:25;;;;;;;2.05;1.02;;;9.90;99.90;;;;;;5036761;28;25097;-75
2023/04/02 13:42:02;;;;;;;6.63;1.98;;;10.80;98.40;;;;;;5002688;28;25122;-75
2023/04/02 13:44:32;;;;;;;2.42;1.13;;;11.50;98.10;;;;;;5036218;28;25117;-75
2023/04/02 13:47:00;;;;;;;3.63;1.40;;;12.10;97.00;;;;;;5026358;28;25077;-75
2023/04/02 13:49:28;;;;;;;2.70;1.10;;;12.60;95.10;;;;;;5016389;28;25064;-75
2023/04/02 13:52:04;;;;;;;4.05;1.05;;;13.00;92.90;;;;;;5016564;28;25059;-75
2023/04/02 13:55:07;;;;;;;;;;;;;;;;;;;;;